createdAt,value
2019-03-25T00:00:44.613Z,2.72
2019-03-25T00:03:12.985Z,2.60
2019-03-25T00:05:41.362Z,3.30
2019-03-25T00:08:09.882Z,3.65
2019-03-25T00:10:38.301Z,3.30
2019-03-25T00:13:06.714Z,2.47
2019-03-25T00:15:35.164Z,3.08
2019-03-25T00:18:04.110Z,3.55
2019-03-25T00:20:32.490Z,3.50
2019-03-25T00:23:00.946Z,3.25
2019-03-25T00:25:29.334Z,4.20
2019-03-25T00:27:57.686Z,2.90
2019-03-25T00:30:26.081Z,3.30
2019-03-25T00:32:54.552Z,3.02
2019-03-25T00:35:23.310Z,3.06
2019-03-25T00:37:51.754Z,3.20
2019-03-25T00:40:20.179Z,3.33
2019-03-25T00:42:48.538Z,3.17
2019-03-25T00:45:17.017Z,3.42
2019-03-25T00:47:45.415Z,2.40
2019-03-25T00:50:13.805Z,2.72
2019-03-25T00:52:42.177Z,3.13
2019-03-25T00:55:10.630Z,2.60
2019-03-25T00:57:39.017Z,3.02
2019-03-25T01:00:08.928Z,2.45
2019-03-25T01:02:37.319Z,2.87
2019-03-25T01:05:05.696Z,3.03
2019-03-25T01:07:34.115Z,2.87
2019-03-25T01:10:02.682Z,2.72
2019-03-25T01:12:31.115Z,3.92
2019-03-25T01:14:59.489Z,2.90
2019-03-25T01:17:27.870Z,2.90
2019-03-25T01:19:56.318Z,3.55
2019-03-25T01:22:24.678Z,2.83
2019-03-25T01:25:01.360Z,3.55
2019-03-25T01:27:23.246Z,3.43
2019-03-25T01:29:51.607Z,2.70
2019-03-25T01:32:20.096Z,3.30
2019-03-25T01:34:48.511Z,2.70
2019-03-25T01:37:17.066Z,3.14
2019-03-25T01:39:45.516Z,2.65
2019-03-25T01:42:13.891Z,2.70
2019-03-25T01:44:42.281Z,2.60
2019-03-25T01:47:10.717Z,3.08
2019-03-25T01:49:39.114Z,2.92
2019-03-25T01:52:07.477Z,2.80
2019-03-25T01:54:36.054Z,2.65
2019-03-25T01:57:04.504Z,3.20
2019-03-25T01:59:32.857Z,3.10
2019-03-25T02:02:01.246Z,2.77
2019-03-25T02:04:29.698Z,2.58
2019-03-25T02:06:58.094Z,3.13
2019-03-25T02:09:26.465Z,3.90
2019-03-25T02:11:54.825Z,3.58
2019-03-25T02:14:23.202Z,2.98
2019-03-25T02:16:51.647Z,2.47
2019-03-25T02:19:20.097Z,2.23
2019-03-25T02:21:48.461Z,3.27
2019-03-25T02:24:16.856Z,2.58
2019-03-25T02:26:45.236Z,2.77
2019-03-25T02:29:13.668Z,3.12
2019-03-25T02:31:42.062Z,3.60
2019-03-25T02:34:10.443Z,2.55
2019-03-25T02:36:38.796Z,3.00
2019-03-25T02:39:07.165Z,2.98
2019-03-25T02:41:35.599Z,2.77
2019-03-25T02:44:04.057Z,3.60
2019-03-25T02:46:32.500Z,3.20
2019-03-25T02:49:00.883Z,3.62
2019-03-25T02:51:30.014Z,2.60
2019-03-25T02:53:58.483Z,3.17
2019-03-25T02:56:26.988Z,3.30
2019-03-25T02:58:55.404Z,3.05
2019-03-25T03:01:23.846Z,2.95
2019-03-25T03:03:52.152Z,2.90
2019-03-25T03:06:20.632Z,2.83
2019-03-25T03:08:48.984Z,3.72
2019-03-25T03:11:17.423Z,3.60
2019-03-25T03:13:45.805Z,2.80
2019-03-25T03:16:14.118Z,2.98
2019-03-25T03:18:42.481Z,2.92
2019-03-25T03:21:10.911Z,2.50
2019-03-25T03:23:39.233Z,2.80
2019-03-25T03:26:07.673Z,2.98
2019-03-25T03:28:36.060Z,2.90
2019-03-25T03:31:04.510Z,3.08
2019-03-25T03:33:32.893Z,2.80
2019-03-25T03:36:01.326Z,2.47
2019-03-25T03:38:29.691Z,3.60
2019-03-25T03:40:58.200Z,3.65
2019-03-25T03:43:26.542Z,3.10
2019-03-25T03:45:55.002Z,3.30
2019-03-25T03:48:24.172Z,3.58
2019-03-25T03:50:52.615Z,3.87
2019-03-25T03:53:21.017Z,3.42
2019-03-25T03:55:49.508Z,3.52
2019-03-25T03:58:17.842Z,3.47
2019-03-25T04:00:46.214Z,3.47
2019-03-25T04:03:14.598Z,5.03
2019-03-25T04:05:42.968Z,4.53
2019-03-25T04:08:11.353Z,4.60
2019-03-25T04:10:39.720Z,3.47
2019-03-25T04:13:08.090Z,3.58
2019-03-25T04:15:36.568Z,3.12
2019-03-25T04:18:04.965Z,2.93
2019-03-25T04:20:33.311Z,3.37
2019-03-25T04:23:01.672Z,3.30
2019-03-25T04:25:30.170Z,3.22
2019-03-25T04:27:58.525Z,3.55
2019-03-25T04:30:26.893Z,3.33
2019-03-25T04:32:55.282Z,3.50
2019-03-25T04:35:23.710Z,4.70
2019-03-25T04:37:52.128Z,3.77
2019-03-25T04:40:20.578Z,4.60
2019-03-25T04:42:48.949Z,3.12
2019-03-25T04:45:18.047Z,3.00
2019-03-25T04:47:46.481Z,3.12
2019-03-25T04:50:14.858Z,3.52
2019-03-25T04:52:43.213Z,3.45
2019-03-25T04:55:11.541Z,2.90
2019-03-25T04:57:39.895Z,3.33
2019-03-25T05:00:09.033Z,4.15
2019-03-25T05:02:37.398Z,4.37
2019-03-25T05:05:07.893Z,3.37
2019-03-25T05:07:36.277Z,3.67
2019-03-25T05:10:06.662Z,4.47
2019-03-25T05:12:35.119Z,3.60
2019-03-25T05:15:04.470Z,3.40
2019-03-25T05:17:32.886Z,3.70
2019-03-25T05:20:01.190Z,2.95
2019-03-25T05:22:29.693Z,3.02
2019-03-25T05:24:58.046Z,3.47
2019-03-25T05:27:26.415Z,3.58
2019-03-25T05:29:54.720Z,3.50
2019-03-25T05:32:23.018Z,3.35
2019-03-25T05:34:51.401Z,3.87
2019-03-25T05:37:19.830Z,3.43
2019-03-25T05:39:48.147Z,3.60
2019-03-25T05:42:16.587Z,3.70
2019-03-25T05:44:45.059Z,3.43
2019-03-25T05:47:13.435Z,7.92
2019-03-25T05:49:41.865Z,7.10
2019-03-25T05:52:10.265Z,5.80
2019-03-25T05:54:38.566Z,5.87
2019-03-25T05:57:06.957Z,6.00
2019-03-25T05:59:35.319Z,4.80
2019-03-25T06:02:03.766Z,4.30
2019-03-25T06:04:33.138Z,4.40
2019-03-25T06:07:01.452Z,4.47
2019-03-25T06:09:29.816Z,3.30
2019-03-25T06:11:58.219Z,3.50
2019-03-25T06:14:26.620Z,3.40
2019-03-25T06:16:55.025Z,3.87
2019-03-25T06:19:23.406Z,3.58
2019-03-25T06:21:51.849Z,3.80
2019-03-25T06:24:20.294Z,3.35
2019-03-25T06:26:48.687Z,3.22
2019-03-25T06:29:17.172Z,3.10
2019-03-25T06:31:45.531Z,2.85
2019-03-25T06:34:13.907Z,2.73
2019-03-25T06:36:42.301Z,2.70
2019-03-25T06:39:10.665Z,2.67
2019-03-25T06:41:39.065Z,3.12
2019-03-25T06:44:08.011Z,3.00
2019-03-25T06:46:36.441Z,3.60
2019-03-25T06:49:04.823Z,2.77
2019-03-25T06:51:33.369Z,2.93
2019-03-25T06:54:01.737Z,3.12
2019-03-25T06:56:30.117Z,3.10
2019-03-25T06:58:58.574Z,3.80
2019-03-25T07:01:27.018Z,3.22
2019-03-25T07:03:55.380Z,3.80
2019-03-25T07:06:23.758Z,3.67
2019-03-25T07:08:52.154Z,3.60
2019-03-25T07:11:20.450Z,3.72
2019-03-25T07:13:48.760Z,3.00
2019-03-25T07:16:17.124Z,3.17
2019-03-25T07:18:45.518Z,4.08
2019-03-25T07:21:13.881Z,2.70
2019-03-25T07:23:42.269Z,3.27
2019-03-25T07:26:10.649Z,4.58
2019-03-25T07:28:39.029Z,3.12
2019-03-25T07:31:07.411Z,3.58
2019-03-25T07:33:35.781Z,4.28
2019-03-25T07:36:04.177Z,3.83
2019-03-25T07:38:32.565Z,3.20
2019-03-25T07:41:00.929Z,2.72
2019-03-25T07:43:29.297Z,3.22
2019-03-25T07:45:57.758Z,3.02
2019-03-25T07:48:26.142Z,3.05
2019-03-25T07:50:54.526Z,2.35
2019-03-25T07:53:22.954Z,3.03
2019-03-25T07:55:51.289Z,2.33
2019-03-25T07:58:19.921Z,3.27
2019-03-25T08:00:48.346Z,3.12
2019-03-25T08:03:16.704Z,2.40
2019-03-25T08:05:45.080Z,2.70
2019-03-25T08:08:13.540Z,2.80
2019-03-25T08:10:41.907Z,3.23
2019-03-25T08:13:10.369Z,3.72
2019-03-25T08:15:38.966Z,3.58
2019-03-25T08:18:07.441Z,3.37
2019-03-25T08:20:35.743Z,2.98
2019-03-25T08:23:04.125Z,3.35
2019-03-25T08:25:32.491Z,2.92
2019-03-25T08:28:00.887Z,2.80
2019-03-25T08:30:29.313Z,3.02
2019-03-25T08:32:57.709Z,3.03
2019-03-25T08:35:26.248Z,3.50
2019-03-25T08:37:54.645Z,3.08
2019-03-25T08:40:23.203Z,3.27
2019-03-25T08:42:51.570Z,3.05
2019-03-25T08:45:20.023Z,2.63
2019-03-25T08:47:48.406Z,2.80
2019-03-25T08:50:16.796Z,2.90
2019-03-25T08:52:45.184Z,3.70
2019-03-25T08:55:14.037Z,2.65
2019-03-25T08:57:42.412Z,2.30
2019-03-25T09:00:11.122Z,2.65
2019-03-25T09:02:39.562Z,3.08
2019-03-25T09:05:08.286Z,2.62
2019-03-25T09:07:36.887Z,2.80
2019-03-25T09:10:10.092Z,2.42
2019-03-25T09:12:38.425Z,1.90
2019-03-25T09:15:10.075Z,2.02
2019-03-25T09:17:38.447Z,2.00
2019-03-25T09:20:08.009Z,2.40
2019-03-25T09:22:36.366Z,2.02
2019-03-25T09:25:07.197Z,1.85
2019-03-25T09:27:35.598Z,1.82
2019-03-25T09:30:04.791Z,1.70
2019-03-25T09:32:33.173Z,1.70
2019-03-25T09:35:01.580Z,2.70
2019-03-25T09:37:29.961Z,2.70
2019-03-25T09:39:58.393Z,2.05
2019-03-25T09:42:26.870Z,2.25
2019-03-25T09:44:55.307Z,2.15
2019-03-25T09:47:23.672Z,2.62
2019-03-25T09:49:52.096Z,2.02
2019-03-25T09:52:20.482Z,2.30
2019-03-25T09:54:48.844Z,2.40
2019-03-25T09:57:19.477Z,2.00
2019-03-25T09:59:47.286Z,2.33
2019-03-25T10:02:16.122Z,1.90
2019-03-25T10:04:44.596Z,1.90
2019-03-25T10:07:16.239Z,1.60
2019-03-25T10:12:12.418Z,2.17
2019-03-25T10:14:40.731Z,1.80
2019-03-25T10:17:09.142Z,3.35
2019-03-25T10:21:58.785Z,2.67
2019-03-25T10:24:28.075Z,1.80
2019-03-25T10:26:56.617Z,2.08
2019-03-25T10:29:25.039Z,2.47
2019-03-25T10:31:53.428Z,2.30
2019-03-25T10:34:21.874Z,1.80
2019-03-25T10:36:50.926Z,2.10
2019-03-25T10:39:19.327Z,2.55
2019-03-25T10:41:47.706Z,1.82
2019-03-25T10:44:15.882Z,2.73
2019-03-25T10:46:44.062Z,1.60
2019-03-25T10:49:12.245Z,2.08
2019-03-25T10:51:40.626Z,2.10
2019-03-25T10:54:08.992Z,1.80
2019-03-25T10:56:37.378Z,1.80
2019-03-25T10:59:05.818Z,1.90
2019-03-25T11:01:34.275Z,1.57
2019-03-25T11:04:02.666Z,1.70
2019-03-25T11:06:31.187Z,1.60
2019-03-25T11:08:59.654Z,1.80
2019-03-25T11:11:28.047Z,1.85
2019-03-25T11:13:56.526Z,1.35
2019-03-25T11:16:25.145Z,1.60
2019-03-25T11:18:53.553Z,1.57
2019-03-25T11:21:21.987Z,2.10
2019-03-25T11:23:50.373Z,1.40
2019-03-25T11:26:18.756Z,1.42
2019-03-25T11:28:47.157Z,1.80
2019-03-25T11:31:15.538Z,1.30
2019-03-25T11:33:43.911Z,1.92
2019-03-25T11:36:12.305Z,1.80
2019-03-25T11:38:40.639Z,2.15
2019-03-25T11:41:09.001Z,1.50
2019-03-25T11:43:37.481Z,1.72
2019-03-25T11:46:05.666Z,1.53
2019-03-25T11:48:33.866Z,2.15
2019-03-25T11:51:02.060Z,1.90
2019-03-25T11:53:30.268Z,2.52
2019-03-25T11:55:58.475Z,1.95
2019-03-25T11:58:26.622Z,1.70
2019-03-25T12:00:54.790Z,1.52
2019-03-25T12:03:22.922Z,1.53
2019-03-25T12:05:51.350Z,1.92
2019-03-25T12:08:19.738Z,1.83
2019-03-25T12:10:48.132Z,1.80
2019-03-25T12:13:16.564Z,1.62
2019-03-25T12:15:44.949Z,1.85
2019-03-25T12:18:13.275Z,2.30
2019-03-25T12:20:41.720Z,1.62
2019-03-25T12:23:10.129Z,2.27
2019-03-25T12:25:38.485Z,1.53
2019-03-25T12:28:07.265Z,0.93
2019-03-25T12:30:36.239Z,1.50
2019-03-25T12:33:04.549Z,1.17
2019-03-25T12:35:32.809Z,3.00
2019-03-25T12:38:00.983Z,1.62
2019-03-25T12:40:29.211Z,1.00
2019-03-25T12:42:57.398Z,1.45
2019-03-25T12:45:28.220Z,1.52
2019-03-25T12:47:55.578Z,1.50
2019-03-25T12:50:23.732Z,0.88
2019-03-25T12:52:51.998Z,1.27
2019-03-25T12:55:20.174Z,1.10
2019-03-25T12:57:48.390Z,1.20
2019-03-25T13:00:18.264Z,1.10
2019-03-25T13:02:46.394Z,0.80
2019-03-25T13:05:14.608Z,1.12
2019-03-25T13:07:42.784Z,1.20
2019-03-25T13:10:11.724Z,1.22
2019-03-25T13:12:39.957Z,1.55
2019-03-25T13:15:08.197Z,1.25
2019-03-25T13:17:36.369Z,1.27
2019-03-25T13:20:05.489Z,1.00
2019-03-25T13:22:33.694Z,1.22
2019-03-25T13:25:01.922Z,0.95
2019-03-25T13:27:30.215Z,1.00
2019-03-25T13:29:58.364Z,1.37
2019-03-25T13:32:26.561Z,1.10
2019-03-25T13:34:54.824Z,1.33
2019-03-25T13:37:23.067Z,0.90
2019-03-25T13:39:51.242Z,0.97
2019-03-25T13:42:19.492Z,1.07
2019-03-25T13:44:48.050Z,0.88
2019-03-25T13:47:16.278Z,0.90
2019-03-25T13:49:44.382Z,0.80
2019-03-25T13:52:12.645Z,0.90
2019-03-25T13:54:40.768Z,1.17
2019-03-25T13:57:08.943Z,1.30
2019-03-25T13:59:37.170Z,1.10
2019-03-25T14:02:05.389Z,1.10
2019-03-25T14:04:33.509Z,1.02
2019-03-25T14:07:03.939Z,1.10
2019-03-25T14:09:31.610Z,5.28
2019-03-25T14:11:59.813Z,1.37
2019-03-25T14:14:27.914Z,1.17
2019-03-25T14:16:56.053Z,1.02
2019-03-25T14:19:24.301Z,0.80
2019-03-25T14:21:52.477Z,1.02
2019-03-25T14:24:21.334Z,0.88
2019-03-25T14:26:49.530Z,0.95
2019-03-25T14:29:17.730Z,0.75
2019-03-25T14:31:45.846Z,1.15
2019-03-25T14:34:14.632Z,0.78
2019-03-25T14:36:42.818Z,0.78
2019-03-25T14:39:11.039Z,1.10
2019-03-25T14:41:39.236Z,1.10
2019-03-25T14:44:07.341Z,1.10
2019-03-25T14:46:35.529Z,1.00
2019-03-25T14:49:03.757Z,1.00
2019-03-25T14:51:31.937Z,0.90
2019-03-25T14:54:00.189Z,1.40
2019-03-25T14:56:28.362Z,1.20
2019-03-25T14:58:58.053Z,1.20
2019-03-25T15:01:26.237Z,1.40
2019-03-25T15:03:54.373Z,0.95
2019-03-25T15:06:22.557Z,0.80
2019-03-25T15:08:50.697Z,0.80
2019-03-25T15:11:18.900Z,1.00
2019-03-25T15:13:47.159Z,0.90
2019-03-25T15:16:15.345Z,1.12
2019-03-25T15:18:43.520Z,0.90
2019-03-25T15:21:11.730Z,1.40
2019-03-25T15:23:39.975Z,0.85
2019-03-25T15:26:08.246Z,0.93
2019-03-25T15:28:36.489Z,1.22
2019-03-25T15:31:06.360Z,3.17
2019-03-25T15:33:34.466Z,1.82
2019-03-25T15:36:02.599Z,0.90
2019-03-25T15:38:31.609Z,0.70
2019-03-25T15:40:59.817Z,0.53
2019-03-25T15:43:27.934Z,0.88
2019-03-25T15:45:56.239Z,0.70
2019-03-25T15:48:24.461Z,1.20
2019-03-25T15:50:52.625Z,0.80
2019-03-25T15:53:20.809Z,0.80
2019-03-25T15:55:49.165Z,0.90
2019-03-25T15:58:25.561Z,0.90
2019-03-25T16:00:48.550Z,1.57
2019-03-25T16:03:16.963Z,0.98
2019-03-25T16:05:45.234Z,0.93
2019-03-25T16:08:13.447Z,0.88
2019-03-25T16:10:41.641Z,1.15
2019-03-25T16:13:09.832Z,1.20
2019-03-25T16:15:38.812Z,1.10
2019-03-25T16:18:07.082Z,0.93
2019-03-25T16:20:35.348Z,1.30
2019-03-25T16:23:03.588Z,1.00
2019-03-25T16:25:31.872Z,2.00
2019-03-25T16:30:40.178Z,2.60
2019-03-25T16:33:08.520Z,1.10
2019-03-25T16:35:36.757Z,1.22
2019-03-25T16:38:04.963Z,1.05
2019-03-25T16:40:33.138Z,1.75
2019-03-25T16:43:01.257Z,1.20
2019-03-25T16:45:29.469Z,1.02
2019-03-25T16:47:57.725Z,1.23
2019-03-25T16:50:25.851Z,0.93
2019-03-25T16:52:54.061Z,0.93
2019-03-25T16:55:22.278Z,1.05
2019-03-25T16:57:50.466Z,1.02
2019-03-25T17:00:27.224Z,1.02
2019-03-25T17:02:48.685Z,1.17
2019-03-25T17:05:16.826Z,0.72
2019-03-25T17:07:45.014Z,0.90
2019-03-25T17:10:13.199Z,0.75
2019-03-25T17:12:41.346Z,1.10
2019-03-25T17:15:09.578Z,0.88
2019-03-25T17:17:37.756Z,1.10
2019-03-25T17:20:06.647Z,1.50
2019-03-25T17:22:34.786Z,0.75
2019-03-25T17:25:03.447Z,0.82
2019-03-25T17:27:31.641Z,1.00
2019-03-25T17:29:59.886Z,1.10
2019-03-25T17:32:28.138Z,0.90
2019-03-25T17:34:56.300Z,1.60
2019-03-25T17:37:24.610Z,0.98
2019-03-25T17:39:52.815Z,1.00
2019-03-25T17:42:20.939Z,1.30
2019-03-25T17:44:49.130Z,1.05
2019-03-25T17:47:17.333Z,1.50
2019-03-25T17:49:45.525Z,1.27
2019-03-25T17:52:13.647Z,1.10
2019-03-25T17:54:42.247Z,1.17
2019-03-25T17:57:10.425Z,1.00
2019-03-25T17:59:38.662Z,1.10
2019-03-25T18:02:06.849Z,1.72
2019-03-25T18:04:35.105Z,2.20
2019-03-25T18:07:03.402Z,3.13
2019-03-25T18:09:31.606Z,2.40
2019-03-25T18:11:59.786Z,1.87
2019-03-25T18:14:28.000Z,1.77
2019-03-25T18:16:56.134Z,1.77
2019-03-25T18:19:24.335Z,1.50
2019-03-25T18:21:52.526Z,2.15
2019-03-25T18:24:20.738Z,2.15
2019-03-25T18:26:49.021Z,2.70
2019-03-25T18:29:17.259Z,2.50
2019-03-25T18:31:45.469Z,3.27
2019-03-25T18:34:13.596Z,3.10
2019-03-25T18:36:41.836Z,3.75
2019-03-25T18:39:10.022Z,3.77
2019-03-25T18:41:38.205Z,3.58
2019-03-25T18:44:06.343Z,2.72
2019-03-25T18:46:34.529Z,2.30
2019-03-25T18:49:02.723Z,1.87
2019-03-25T18:51:30.922Z,2.12
2019-03-25T18:53:59.133Z,2.55
2019-03-25T18:56:27.253Z,1.80
2019-03-25T18:58:55.496Z,2.12
2019-03-25T19:01:23.677Z,2.00
2019-03-25T19:03:51.866Z,2.40
2019-03-25T19:06:20.074Z,1.95
2019-03-25T19:08:50.554Z,1.92
2019-03-25T19:11:18.869Z,2.10
2019-03-25T19:13:47.107Z,1.67
2019-03-25T19:16:15.310Z,1.80
2019-03-25T19:18:43.496Z,1.80
2019-03-25T19:21:11.676Z,2.27
2019-03-25T19:23:39.843Z,1.85
2019-03-25T19:26:08.040Z,1.60
2019-03-25T19:28:36.470Z,1.77
2019-03-25T19:31:04.741Z,2.12
2019-03-25T19:33:32.944Z,1.75
2019-03-25T19:36:01.224Z,1.67
2019-03-25T19:38:29.422Z,1.60
2019-03-25T19:40:57.621Z,1.50
2019-03-25T19:43:25.839Z,1.45
2019-03-25T19:45:54.046Z,1.40
2019-03-25T19:48:22.319Z,1.60
2019-03-25T19:50:50.552Z,1.47
2019-03-25T19:53:19.667Z,1.60
2019-03-25T19:55:48.032Z,1.70
2019-03-25T19:58:16.229Z,1.40
2019-03-25T20:00:44.423Z,1.60
2019-03-25T20:03:12.628Z,1.70
2019-03-25T20:05:40.896Z,2.17
2019-03-25T20:08:09.163Z,1.25
2019-03-25T20:10:37.710Z,1.47
2019-03-25T20:13:05.944Z,1.50
2019-03-25T20:15:45.625Z,1.60
2019-03-25T20:18:04.079Z,1.30
2019-03-25T20:20:32.326Z,1.47
2019-03-25T20:23:00.851Z,1.82
2019-03-25T20:25:29.021Z,1.92
2019-03-25T20:27:57.190Z,1.37
2019-03-25T20:30:25.375Z,1.63
2019-03-25T20:32:53.547Z,1.60
2019-03-25T20:35:21.768Z,1.80
2019-03-25T20:37:49.952Z,1.60
2019-03-25T20:40:37.896Z,1.46
2019-03-25T20:43:06.190Z,1.87
2019-03-25T20:45:34.357Z,2.10
2019-03-25T20:48:02.572Z,1.45
2019-03-25T20:50:30.931Z,2.10
2019-03-25T20:52:59.199Z,2.05
2019-03-25T20:55:27.586Z,1.72
2019-03-25T20:57:57.417Z,1.67
2019-03-25T21:00:36.401Z,1.70
2019-03-25T21:03:07.636Z,1.50
2019-03-25T21:05:36.093Z,1.42
2019-03-25T21:08:04.559Z,1.50
2019-03-25T21:10:32.844Z,1.65
2019-03-25T21:13:08.539Z,1.70
2019-03-25T21:15:39.445Z,1.67
2019-03-25T21:18:10.739Z,1.82
2019-03-25T21:20:46.226Z,1.70
2019-03-25T21:23:16.947Z,1.85
2019-03-25T21:25:45.225Z,1.90
2019-03-25T21:28:13.704Z,1.70
2019-03-25T21:30:47.938Z,2.00
2019-03-25T21:33:11.945Z,2.17
2019-03-25T21:35:40.423Z,2.25
2019-03-25T21:38:09.039Z,3.22
2019-03-25T21:40:37.266Z,2.33
2019-03-25T21:43:05.447Z,1.50
2019-03-25T21:48:07.103Z,1.40
2019-03-25T21:50:35.285Z,1.97
2019-03-25T21:53:03.434Z,1.57
2019-03-25T21:55:31.657Z,1.70
2019-03-25T21:57:59.912Z,1.42
2019-03-25T22:00:28.049Z,2.25
2019-03-25T22:02:56.384Z,1.60
2019-03-25T22:05:24.506Z,1.42
2019-03-25T22:07:52.610Z,1.50
2019-03-25T22:10:20.747Z,1.67
2019-03-25T22:12:48.872Z,1.57
2019-03-25T22:15:17.145Z,1.30
2019-03-25T22:17:45.285Z,1.20
2019-03-25T22:20:13.477Z,1.40
2019-03-25T22:22:41.582Z,1.47
2019-03-25T22:25:09.789Z,1.52
2019-03-25T22:27:37.992Z,1.60
2019-03-25T22:30:06.392Z,1.07
2019-03-25T22:32:34.588Z,1.20
2019-03-25T22:35:04.337Z,1.50
2019-03-25T22:37:32.533Z,1.25
2019-03-25T22:40:00.811Z,1.27
2019-03-25T22:42:29.190Z,1.20
2019-03-25T22:44:57.566Z,1.92
2019-03-25T22:47:25.954Z,1.97
2019-03-25T22:49:54.310Z,2.30
2019-03-25T22:52:23.361Z,1.70
2019-03-25T22:54:51.778Z,1.50
2019-03-25T22:57:20.140Z,1.95
2019-03-25T22:59:48.522Z,1.42
2019-03-25T23:02:16.905Z,1.20
2019-03-25T23:04:45.271Z,1.80
2019-03-25T23:07:13.686Z,1.20
2019-03-25T23:09:42.075Z,1.20
2019-03-25T23:12:10.265Z,1.57
2019-03-25T23:14:38.443Z,1.27
2019-03-25T23:17:06.647Z,1.57
2019-03-25T23:19:34.825Z,1.52
2019-03-25T23:22:03.055Z,1.27
2019-03-25T23:24:31.501Z,1.20
2019-03-25T23:26:59.966Z,1.63
2019-03-25T23:29:31.204Z,1.47
2019-03-25T23:31:58.985Z,1.30
2019-03-25T23:34:27.361Z,1.20
2019-03-25T23:36:55.767Z,1.85
2019-03-25T23:39:25.199Z,1.42
2019-03-25T23:41:53.730Z,1.67
2019-03-25T23:44:22.182Z,1.90
2019-03-25T23:46:50.582Z,2.00
2019-03-25T23:49:19.044Z,1.20
2019-03-25T23:51:47.388Z,1.45
2019-03-25T23:54:16.082Z,1.20
2019-03-25T23:56:44.514Z,1.67
2019-03-25T23:59:12.862Z,1.82
